sensor_id;sensor_type;location;lat;lon;timestamp;temperature;humidity
7317;DHT22;3699;51.462;6.696;2022-08-25T00:01:59;23.40;99.90
7317;DHT22;3699;51.462;6.696;2022-08-25T00:04:27;23.30;99.90
7317;DHT22;3699;51.462;6.696;2022-08-25T00:06:54;23.20;99.90
7317;DHT22;3699;51.462;6.696;2022-08-25T00:09:23;23.20;99.90
7317;DHT22;3699;51.462;6.696;2022-08-25T00:11:51;23.10;99.90
7317;DHT22;3699;51.462;6.696;2022-08-25T00:14:21;23.00;99.90
7317;DHT22;3699;51.462;6.696;2022-08-25T00:16:48;23.00;99.90
7317;DHT22;3699;51.462;6.696;2022-08-25T00:19:18;22.90;99.90
7317;DHT22;3699;51.462;6.696;2022-08-25T00:21:46;22.90;99.90
7317;DHT22;3699;51.462;6.696;2022-08-25T00:24:15;22.80;99.90
7317;DHT22;3699;51.462;6.696;2022-08-25T00:26:44;22.80;99.90
7317;DHT22;3699;51.462;6.696;2022-08-25T00:29:11;22.70;99.90
7317;DHT22;3699;51.462;6.696;2022-08-25T00:31:39;22.60;99.90
7317;DHT22;3699;51.462;6.696;2022-08-25T00:34:08;22.60;99.90
7317;DHT22;3699;51.462;6.696;2022-08-25T00:36:37;22.60;99.90
7317;DHT22;3699;51.462;6.696;2022-08-25T00:39:04;22.60;99.90
7317;DHT22;3699;51.462;6.696;2022-08-25T00:41:31;22.60;99.90
7317;DHT22;3699;51.462;6.696;2022-08-25T00:44:01;22.60;99.90
7317;DHT22;3699;51.462;6.696;2022-08-25T00:46:30;22.60;99.90
7317;DHT22;3699;51.462;6.696;2022-08-25T00:48:59;22.50;99.90
7317;DHT22;3699;51.462;6.696;2022-08-25T00:51:32;22.50;99.90
7317;DHT22;3699;51.462;6.696;2022-08-25T00:54:03;22.40;99.90
7317;DHT22;3699;51.462;6.696;2022-08-25T00:56:31;22.40;99.90
7317;DHT22;3699;51.462;6.696;2022-08-25T00:58:59;22.40;99.90
7317;DHT22;3699;51.462;6.696;2022-08-25T01:01:27;22.30;99.90
7317;DHT22;3699;51.462;6.696;2022-08-25T01:03:55;22.20;99.90
7317;DHT22;3699;51.462;6.696;2022-08-25T01:06:22;22.10;99.90
7317;DHT22;3699;51.462;6.696;2022-08-25T01:08:50;22.00;99.90
7317;DHT22;3699;51.462;6.696;2022-08-25T01:11:19;22.00;99.90
7317;DHT22;3699;51.462;6.696;2022-08-25T01:13:53;22.00;99.90
7317;DHT22;3699;51.462;6.696;2022-08-25T01:16:21;21.90;99.90
7317;DHT22;3699;51.462;6.696;2022-08-25T01:18:50;21.80;99.90
7317;DHT22;3699;51.462;6.696;2022-08-25T01:21:20;21.80;99.90
7317;DHT22;3699;51.462;6.696;2022-08-25T01:23:48;21.70;99.90
7317;DHT22;3699;51.462;6.696;2022-08-25T01:26:18;21.60;99.90
7317;DHT22;3699;51.462;6.696;2022-08-25T01:28:46;21.60;99.90
7317;DHT22;3699;51.462;6.696;2022-08-25T01:31:31;21.50;99.90
7317;DHT22;3699;51.462;6.696;2022-08-25T01:33:59;21.60;99.90
7317;DHT22;3699;51.462;6.696;2022-08-25T01:36:28;21.40;99.90
7317;DHT22;3699;51.462;6.696;2022-08-25T01:38:55;21.40;99.90
7317;DHT22;3699;51.462;6.696;2022-08-25T01:41:29;21.40;99.90
7317;DHT22;3699;51.462;6.696;2022-08-25T01:43:57;21.40;99.90
7317;DHT22;3699;51.462;6.696;2022-08-25T01:46:24;21.30;99.90
7317;DHT22;3699;51.462;6.696;2022-08-25T01:48:50;21.30;99.90
7317;DHT22;3699;51.462;6.696;2022-08-25T01:51:19;21.30;99.90
7317;DHT22;3699;51.462;6.696;2022-08-25T01:53:48;21.30;99.90
7317;DHT22;3699;51.462;6.696;2022-08-25T01:56:16;21.20;99.90
7317;DHT22;3699;51.462;6.696;2022-08-25T01:58:45;21.20;99.90
7317;DHT22;3699;51.462;6.696;2022-08-25T02:01:15;21.20;99.90
7317;DHT22;3699;51.462;6.696;2022-08-25T02:03:45;21.20;99.90
7317;DHT22;3699;51.462;6.696;2022-08-25T02:06:13;21.10;99.90
7317;DHT22;3699;51.462;6.696;2022-08-25T02:08:41;21.10;99.90
7317;DHT22;3699;51.462;6.696;2022-08-25T02:11:11;21.10;99.90
7317;DHT22;3699;51.462;6.696;2022-08-25T02:13:39;21.10;99.90
7317;DHT22;3699;51.462;6.696;2022-08-25T02:16:07;21.00;99.90
7317;DHT22;3699;51.462;6.696;2022-08-25T02:18:35;21.00;99.90
7317;DHT22;3699;51.462;6.696;2022-08-25T02:21:02;20.90;99.90
7317;DHT22;3699;51.462;6.696;2022-08-25T02:23:29;20.90;99.90
7317;DHT22;3699;51.462;6.696;2022-08-25T02:25:56;20.80;99.90
7317;DHT22;3699;51.462;6.696;2022-08-25T02:28:24;20.80;99.90
7317;DHT22;3699;51.462;6.696;2022-08-25T02:30:51;20.70;99.90
7317;DHT22;3699;51.462;6.696;2022-08-25T02:33:18;20.70;99.90
7317;DHT22;3699;51.462;6.696;2022-08-25T02:35:45;20.70;99.90
7317;DHT22;3699;51.462;6.696;2022-08-25T02:38:12;20.60;99.90
7317;DHT22;3699;51.462;6.696;2022-08-25T02:40:39;20.60;99.90
7317;DHT22;3699;51.462;6.696;2022-08-25T02:43:06;20.50;99.90
7317;DHT22;3699;51.462;6.696;2022-08-25T02:45:34;20.50;99.90
7317;DHT22;3699;51.462;6.696;2022-08-25T02:48:01;20.50;99.90
7317;DHT22;3699;51.462;6.696;2022-08-25T02:50:28;20.50;99.90
7317;DHT22;3699;51.462;6.696;2022-08-25T02:52:55;20.50;99.90
7317;DHT22;3699;51.462;6.696;2022-08-25T02:55:21;20.40;99.90
7317;DHT22;3699;51.462;6.696;2022-08-25T02:57:48;20.40;99.90
7317;DHT22;3699;51.462;6.696;2022-08-25T03:00:16;20.40;99.90
7317;DHT22;3699;51.462;6.696;2022-08-25T03:02:45;20.30;99.90
7317;DHT22;3699;51.462;6.696;2022-08-25T03:05:13;20.30;99.90
7317;DHT22;3699;51.462;6.696;2022-08-25T03:07:40;20.30;99.90
7317;DHT22;3699;51.462;6.696;2022-08-25T03:10:08;20.20;99.90
7317;DHT22;3699;51.462;6.696;2022-08-25T03:12:36;20.20;99.90
7317;DHT22;3699;51.462;6.696;2022-08-25T03:15:05;20.20;99.90
7317;DHT22;3699;51.462;6.696;2022-08-25T03:17:31;20.20;99.90
7317;DHT22;3699;51.462;6.696;2022-08-25T03:19:59;20.20;99.90
7317;DHT22;3699;51.462;6.696;2022-08-25T03:22:26;20.10;99.90
7317;DHT22;3699;51.462;6.696;2022-08-25T03:24:53;20.10;99.90
7317;DHT22;3699;51.462;6.696;2022-08-25T03:27:40;20.10;99.90
7317;DHT22;3699;51.462;6.696;2022-08-25T03:30:07;20.00;99.90
7317;DHT22;3699;51.462;6.696;2022-08-25T03:32:35;20.00;99.90
7317;DHT22;3699;51.462;6.696;2022-08-25T03:35:04;20.00;99.90
7317;DHT22;3699;51.462;6.696;2022-08-25T03:37:31;20.00;99.90
7317;DHT22;3699;51.462;6.696;2022-08-25T03:39:57;20.00;99.90
7317;DHT22;3699;51.462;6.696;2022-08-25T03:42:24;19.90;99.90
7317;DHT22;3699;51.462;6.696;2022-08-25T03:44:51;19.90;99.90
7317;DHT22;3699;51.462;6.696;2022-08-25T03:47:17;19.90;99.90
7317;DHT22;3699;51.462;6.696;2022-08-25T03:49:44;19.90;99.90
7317;DHT22;3699;51.462;6.696;2022-08-25T03:52:13;19.90;99.90
7317;DHT22;3699;51.462;6.696;2022-08-25T03:54:42;19.80;99.90
7317;DHT22;3699;51.462;6.696;2022-08-25T03:57:09;19.80;99.90
7317;DHT22;3699;51.462;6.696;2022-08-25T03:59:36;19.80;99.90
7317;DHT22;3699;51.462;6.696;2022-08-25T04:02:03;19.80;99.90
7317;DHT22;3699;51.462;6.696;2022-08-25T04:04:30;19.80;99.90
7317;DHT22;3699;51.462;6.696;2022-08-25T04:06:57;19.70;99.90
7317;DHT22;3699;51.462;6.696;2022-08-25T04:09:26;19.80;99.90
7317;DHT22;3699;51.462;6.696;2022-08-25T04:11:52;19.70;99.90
7317;DHT22;3699;51.462;6.696;2022-08-25T04:14:20;19.80;99.90
7317;DHT22;3699;51.462;6.696;2022-08-25T04:16:48;19.80;99.90
7317;DHT22;3699;51.462;6.696;2022-08-25T04:19:15;19.80;99.90
7317;DHT22;3699;51.462;6.696;2022-08-25T04:21:42;19.80;99.90
7317;DHT22;3699;51.462;6.696;2022-08-25T04:24:10;19.90;99.90
7317;DHT22;3699;51.462;6.696;2022-08-25T04:26:42;19.90;99.90
7317;DHT22;3699;51.462;6.696;2022-08-25T04:29:10;19.90;99.90
7317;DHT22;3699;51.462;6.696;2022-08-25T04:31:38;20.00;99.90
7317;DHT22;3699;51.462;6.696;2022-08-25T04:34:06;20.10;99.90
7317;DHT22;3699;51.462;6.696;2022-08-25T04:36:33;20.10;99.90
7317;DHT22;3699;51.462;6.696;2022-08-25T04:39:00;20.10;99.90
7317;DHT22;3699;51.462;6.696;2022-08-25T04:41:27;20.20;99.90
7317;DHT22;3699;51.462;6.696;2022-08-25T04:43:57;20.20;99.90
7317;DHT22;3699;51.462;6.696;2022-08-25T04:46:25;20.20;99.90
7317;DHT22;3699;51.462;6.696;2022-08-25T04:48:54;20.20;99.90
7317;DHT22;3699;51.462;6.696;2022-08-25T04:51:23;20.20;99.90
7317;DHT22;3699;51.462;6.696;2022-08-25T04:53:50;20.20;99.90
7317;DHT22;3699;51.462;6.696;2022-08-25T04:56:20;20.20;99.90
7317;DHT22;3699;51.462;6.696;2022-08-25T04:58:47;20.20;99.90
7317;DHT22;3699;51.462;6.696;2022-08-25T05:01:18;20.20;99.90
7317;DHT22;3699;51.462;6.696;2022-08-25T05:03:47;20.20;99.90
7317;DHT22;3699;51.462;6.696;2022-08-25T05:08:44;20.20;99.90
7317;DHT22;3699;51.462;6.696;2022-08-25T05:11:12;20.20;99.90
7317;DHT22;3699;51.462;6.696;2022-08-25T05:13:41;20.20;99.90
7317;DHT22;3699;51.462;6.696;2022-08-25T05:16:08;20.20;99.90
7317;DHT22;3699;51.462;6.696;2022-08-25T05:18:36;20.30;99.90
7317;DHT22;3699;51.462;6.696;2022-08-25T05:21:07;20.30;99.90
7317;DHT22;3699;51.462;6.696;2022-08-25T05:23:34;20.30;99.90
7317;DHT22;3699;51.462;6.696;2022-08-25T05:26:03;20.30;99.90
7317;DHT22;3699;51.462;6.696;2022-08-25T05:28:30;20.40;99.90
7317;DHT22;3699;51.462;6.696;2022-08-25T05:30:58;20.50;99.90
7317;DHT22;3699;51.462;6.696;2022-08-25T05:33:25;20.60;99.90
7317;DHT22;3699;51.462;6.696;2022-08-25T05:35:54;20.60;99.90
7317;DHT22;3699;51.462;6.696;2022-08-25T05:38:21;20.70;99.90
7317;DHT22;3699;51.462;6.696;2022-08-25T05:40:51;21.10;99.90
7317;DHT22;3699;51.462;6.696;2022-08-25T05:43:18;21.20;99.90
7317;DHT22;3699;51.462;6.696;2022-08-25T05:45:44;22.00;99.90
7317;DHT22;3699;51.462;6.696;2022-08-25T05:48:11;22.30;99.90
7317;DHT22;3699;51.462;6.696;2022-08-25T05:50:38;22.40;99.90
7317;DHT22;3699;51.462;6.696;2022-08-25T05:53:06;23.30;99.90
7317;DHT22;3699;51.462;6.696;2022-08-25T05:55:33;23.70;99.90
7317;DHT22;3699;51.462;6.696;2022-08-25T05:58:00;24.20;99.90
7317;DHT22;3699;51.462;6.696;2022-08-25T06:00:26;24.60;99.90
7317;DHT22;3699;51.462;6.696;2022-08-25T06:02:53;25.00;99.90
7317;DHT22;3699;51.462;6.696;2022-08-25T06:05:21;25.00;99.90
7317;DHT22;3699;51.462;6.696;2022-08-25T06:07:50;25.90;99.90
7317;DHT22;3699;51.462;6.696;2022-08-25T06:10:19;26.50;99.90
7317;DHT22;3699;51.462;6.696;2022-08-25T06:12:46;26.50;99.90
7317;DHT22;3699;51.462;6.696;2022-08-25T06:15:16;27.00;99.90
7317;DHT22;3699;51.462;6.696;2022-08-25T06:17:44;27.40;99.90
7317;DHT22;3699;51.462;6.696;2022-08-25T06:20:14;27.90;93.50
7317;DHT22;3699;51.462;6.696;2022-08-25T06:22:41;28.50;87.00
7317;DHT22;3699;51.462;6.696;2022-08-25T06:25:11;28.50;86.30
7317;DHT22;3699;51.462;6.696;2022-08-25T06:27:39;28.70;81.30
7317;DHT22;3699;51.462;6.696;2022-08-25T06:30:09;29.00;77.50
7317;DHT22;3699;51.462;6.696;2022-08-25T06:32:38;29.30;75.80
7317;DHT22;3699;51.462;6.696;2022-08-25T06:35:09;29.70;68.70
7317;DHT22;3699;51.462;6.696;2022-08-25T06:37:36;29.70;69.50
7317;DHT22;3699;51.462;6.696;2022-08-25T06:40:05;29.90;69.00
7317;DHT22;3699;51.462;6.696;2022-08-25T06:42:32;30.20;65.30
7317;DHT22;3699;51.462;6.696;2022-08-25T06:45:00;30.10;66.90
7317;DHT22;3699;51.462;6.696;2022-08-25T06:47:27;30.30;67.40
7317;DHT22;3699;51.462;6.696;2022-08-25T06:49:54;30.60;63.40
7317;DHT22;3699;51.462;6.696;2022-08-25T06:52:21;30.80;61.50
7317;DHT22;3699;51.462;6.696;2022-08-25T06:54:47;30.90;58.70
7317;DHT22;3699;51.462;6.696;2022-08-25T06:57:14;31.10;57.90
7317;DHT22;3699;51.462;6.696;2022-08-25T06:59:41;31.30;56.00
7317;DHT22;3699;51.462;6.696;2022-08-25T07:02:09;31.30;56.60
7317;DHT22;3699;51.462;6.696;2022-08-25T07:04:36;31.30;57.10
7317;DHT22;3699;51.462;6.696;2022-08-25T07:07:03;31.30;53.60
7317;DHT22;3699;51.462;6.696;2022-08-25T07:09:30;31.40;53.80
7317;DHT22;3699;51.462;6.696;2022-08-25T07:11:57;31.20;52.20
7317;DHT22;3699;51.462;6.696;2022-08-25T07:14:23;31.20;52.70
7317;DHT22;3699;51.462;6.696;2022-08-25T07:16:50;31.10;53.90
7317;DHT22;3699;51.462;6.696;2022-08-25T07:19:18;31.10;54.20
7317;DHT22;3699;51.462;6.696;2022-08-25T07:21:49;31.10;52.60
7317;DHT22;3699;51.462;6.696;2022-08-25T07:24:16;31.20;53.30
7317;DHT22;3699;51.462;6.696;2022-08-25T07:26:43;31.30;52.30
7317;DHT22;3699;51.462;6.696;2022-08-25T07:29:13;31.20;52.30
7317;DHT22;3699;51.462;6.696;2022-08-25T07:31:40;31.30;51.60
7317;DHT22;3699;51.462;6.696;2022-08-25T07:34:07;31.20;52.50
7317;DHT22;3699;51.462;6.696;2022-08-25T07:36:53;31.20;51.40
7317;DHT22;3699;51.462;6.696;2022-08-25T07:39:20;31.10;50.80
7317;DHT22;3699;51.462;6.696;2022-08-25T07:41:47;30.90;51.30
7317;DHT22;3699;51.462;6.696;2022-08-25T07:44:14;30.70;52.40
7317;DHT22;3699;51.462;6.696;2022-08-25T07:46:41;30.70;52.60
7317;DHT22;3699;51.462;6.696;2022-08-25T07:49:08;30.60;52.20
7317;DHT22;3699;51.462;6.696;2022-08-25T07:51:35;30.60;53.00
7317;DHT22;3699;51.462;6.696;2022-08-25T07:54:04;30.40;51.60
7317;DHT22;3699;51.462;6.696;2022-08-25T07:56:31;30.40;52.10
7317;DHT22;3699;51.462;6.696;2022-08-25T07:58:57;30.40;54.00
7317;DHT22;3699;51.462;6.696;2022-08-25T08:01:25;30.30;52.60
7317;DHT22;3699;51.462;6.696;2022-08-25T08:03:51;30.30;53.00
7317;DHT22;3699;51.462;6.696;2022-08-25T08:06:20;30.30;53.80
7317;DHT22;3699;51.462;6.696;2022-08-25T08:08:48;30.20;52.30
7317;DHT22;3699;51.462;6.696;2022-08-25T08:11:18;30.20;53.00
7317;DHT22;3699;51.462;6.696;2022-08-25T08:13:46;30.20;53.50
7317;DHT22;3699;51.462;6.696;2022-08-25T08:16:15;30.30;54.20
7317;DHT22;3699;51.462;6.696;2022-08-25T08:18:43;30.30;53.50
7317;DHT22;3699;51.462;6.696;2022-08-25T08:21:11;30.40;54.70
7317;DHT22;3699;51.462;6.696;2022-08-25T08:23:38;30.70;54.30
7317;DHT22;3699;51.462;6.696;2022-08-25T08:26:05;30.90;53.10
7317;DHT22;3699;51.462;6.696;2022-08-25T08:28:33;31.00;52.40
7317;DHT22;3699;51.462;6.696;2022-08-25T08:31:00;31.00;51.80
7317;DHT22;3699;51.462;6.696;2022-08-25T08:33:27;31.10;52.80
7317;DHT22;3699;51.462;6.696;2022-08-25T08:35:58;31.30;51.10
7317;DHT22;3699;51.462;6.696;2022-08-25T08:38:26;31.30;51.90
7317;DHT22;3699;51.462;6.696;2022-08-25T08:40:59;31.60;51.10
7317;DHT22;3699;51.462;6.696;2022-08-25T08:43:48;31.70;49.40
7317;DHT22;3699;51.462;6.696;2022-08-25T08:46:18;31.70;49.20
7317;DHT22;3699;51.462;6.696;2022-08-25T08:48:54;31.70;49.10
7317;DHT22;3699;51.462;6.696;2022-08-25T08:51:26;31.70;49.70
7317;DHT22;3699;51.462;6.696;2022-08-25T08:53:55;31.80;49.60
7317;DHT22;3699;51.462;6.696;2022-08-25T08:56:27;31.70;49.20
7317;DHT22;3699;51.462;6.696;2022-08-25T08:58:58;31.90;48.40
7317;DHT22;3699;51.462;6.696;2022-08-25T09:01:30;32.00;49.60
7317;DHT22;3699;51.462;6.696;2022-08-25T09:04:04;32.00;48.00
7317;DHT22;3699;51.462;6.696;2022-08-25T09:06:37;32.40;47.00
7317;DHT22;3699;51.462;6.696;2022-08-25T09:09:07;32.40;47.70
7317;DHT22;3699;51.462;6.696;2022-08-25T09:11:46;32.50;46.80
7317;DHT22;3699;51.462;6.696;2022-08-25T09:14:31;32.70;47.30
7317;DHT22;3699;51.462;6.696;2022-08-25T09:17:02;32.80;44.30
7317;DHT22;3699;51.462;6.696;2022-08-25T09:20:07;33.00;43.10
7317;DHT22;3699;51.462;6.696;2022-08-25T09:22:44;33.00;43.50
7317;DHT22;3699;51.462;6.696;2022-08-25T09:25:20;32.90;42.60
7317;DHT22;3699;51.462;6.696;2022-08-25T09:27:55;32.90;42.20
7317;DHT22;3699;51.462;6.696;2022-08-25T09:30:26;33.00;43.10
7317;DHT22;3699;51.462;6.696;2022-08-25T09:32:59;33.10;43.90
7317;DHT22;3699;51.462;6.696;2022-08-25T09:35:39;33.30;43.20
7317;DHT22;3699;51.462;6.696;2022-08-25T09:38:10;33.10;43.00
7317;DHT22;3699;51.462;6.696;2022-08-25T09:40:39;33.20;42.80
7317;DHT22;3699;51.462;6.696;2022-08-25T09:43:18;33.30;42.50
7317;DHT22;3699;51.462;6.696;2022-08-25T09:45:48;33.40;42.20
7317;DHT22;3699;51.462;6.696;2022-08-25T09:48:21;33.40;42.40
7317;DHT22;3699;51.462;6.696;2022-08-25T09:50:49;33.40;42.70
7317;DHT22;3699;51.462;6.696;2022-08-25T09:53:17;33.40;41.60
7317;DHT22;3699;51.462;6.696;2022-08-25T09:55:46;33.50;42.70
7317;DHT22;3699;51.462;6.696;2022-08-25T09:58:21;33.60;41.50
7317;DHT22;3699;51.462;6.696;2022-08-25T10:01:14;33.80;41.40
7317;DHT22;3699;51.462;6.696;2022-08-25T10:03:59;33.90;40.30
7317;DHT22;3699;51.462;6.696;2022-08-25T10:06:29;33.90;40.50
7317;DHT22;3699;51.462;6.696;2022-08-25T10:09:00;33.90;40.40
7317;DHT22;3699;51.462;6.696;2022-08-25T10:11:37;33.80;40.70
7317;DHT22;3699;51.462;6.696;2022-08-25T10:14:16;33.80;40.40
7317;DHT22;3699;51.462;6.696;2022-08-25T10:16:45;33.80;40.00
7317;DHT22;3699;51.462;6.696;2022-08-25T10:19:22;33.80;40.80
7317;DHT22;3699;51.462;6.696;2022-08-25T10:22:02;33.90;39.00
7317;DHT22;3699;51.462;6.696;2022-08-25T10:24:30;33.80;37.30
7317;DHT22;3699;51.462;6.696;2022-08-25T10:27:02;33.80;37.60
7317;DHT22;3699;51.462;6.696;2022-08-25T10:29:45;33.80;38.00
7317;DHT22;3699;51.462;6.696;2022-08-25T10:32:24;34.00;37.70
7317;DHT22;3699;51.462;6.696;2022-08-25T10:35:03;32.60;38.20
7317;DHT22;3699;51.462;6.696;2022-08-25T10:37:41;34.00;39.20
7317;DHT22;3699;51.462;6.696;2022-08-25T10:40:18;34.00;37.90
7317;DHT22;3699;51.462;6.696;2022-08-25T10:42:56;34.00;37.80
7317;DHT22;3699;51.462;6.696;2022-08-25T10:45:28;34.00;38.50
7317;DHT22;3699;51.462;6.696;2022-08-25T10:51:06;34.00;37.20
7317;DHT22;3699;51.462;6.696;2022-08-25T10:53:46;34.00;37.60
7317;DHT22;3699;51.462;6.696;2022-08-25T10:56:19;34.10;38.40
7317;DHT22;3699;51.462;6.696;2022-08-25T11:04:52;34.40;36.90
7317;DHT22;3699;51.462;6.696;2022-08-25T11:07:24;34.10;36.00
7317;DHT22;3699;51.462;6.696;2022-08-25T11:09:56;34.00;36.80
7317;DHT22;3699;51.462;6.696;2022-08-25T11:12:28;33.90;37.10
7317;DHT22;3699;51.462;6.696;2022-08-25T11:14:58;33.80;37.30
7317;DHT22;3699;51.462;6.696;2022-08-25T11:17:36;33.80;37.70
7317;DHT22;3699;51.462;6.696;2022-08-25T11:20:11;33.90;37.60
7317;DHT22;3699;51.462;6.696;2022-08-25T11:22:43;34.00;37.80
7317;DHT22;3699;51.462;6.696;2022-08-25T11:25:15;34.10;38.00
7317;DHT22;3699;51.462;6.696;2022-08-25T11:27:46;34.20;37.40
7317;DHT22;3699;51.462;6.696;2022-08-25T11:30:16;34.30;38.20
7317;DHT22;3699;51.462;6.696;2022-08-25T11:32:45;34.40;37.30
7317;DHT22;3699;51.462;6.696;2022-08-25T11:35:16;34.40;36.80
7317;DHT22;3699;51.462;6.696;2022-08-25T11:37:56;34.20;36.90
7317;DHT22;3699;51.462;6.696;2022-08-25T11:40:37;34.30;37.00
7317;DHT22;3699;51.462;6.696;2022-08-25T11:43:15;34.30;36.80
7317;DHT22;3699;51.462;6.696;2022-08-25T11:46:02;34.20;36.10
7317;DHT22;3699;51.462;6.696;2022-08-25T11:48:40;34.20;37.80
7317;DHT22;3699;51.462;6.696;2022-08-25T11:51:26;34.40;36.30
7317;DHT22;3699;51.462;6.696;2022-08-25T11:54:09;34.50;36.10
7317;DHT22;3699;51.462;6.696;2022-08-25T11:56:39;34.60;36.00
7317;DHT22;3699;51.462;6.696;2022-08-25T11:59:07;34.80;36.70
7317;DHT22;3699;51.462;6.696;2022-08-25T12:01:59;34.90;35.60
7317;DHT22;3699;51.462;6.696;2022-08-25T12:04:35;34.90;34.70
7317;DHT22;3699;51.462;6.696;2022-08-25T12:07:24;34.90;34.30
7317;DHT22;3699;51.462;6.696;2022-08-25T12:10:14;34.70;33.90
7317;DHT22;3699;51.462;6.696;2022-08-25T12:13:02;34.70;34.00
7317;DHT22;3699;51.462;6.696;2022-08-25T12:15:34;34.60;33.30
7317;DHT22;3699;51.462;6.696;2022-08-25T12:18:38;34.40;33.30
7317;DHT22;3699;51.462;6.696;2022-08-25T12:21:15;34.40;34.70
7317;DHT22;3699;51.462;6.696;2022-08-25T12:24:34;34.50;34.60
7317;DHT22;3699;51.462;6.696;2022-08-25T12:27:17;34.80;34.80
7317;DHT22;3699;51.462;6.696;2022-08-25T12:29:49;34.90;33.30
7317;DHT22;3699;51.462;6.696;2022-08-25T12:32:27;35.10;33.70
7317;DHT22;3699;51.462;6.696;2022-08-25T12:35:27;35.10;32.40
7317;DHT22;3699;51.462;6.696;2022-08-25T12:38:01;35.10;32.40
7317;DHT22;3699;51.462;6.696;2022-08-25T12:40:34;35.20;34.50
7317;DHT22;3699;51.462;6.696;2022-08-25T12:43:06;35.30;34.40
7317;DHT22;3699;51.462;6.696;2022-08-25T12:45:40;35.40;33.20
7317;DHT22;3699;51.462;6.696;2022-08-25T12:51:16;35.40;33.80
7317;DHT22;3699;51.462;6.696;2022-08-25T12:53:47;35.40;33.50
7317;DHT22;3699;51.462;6.696;2022-08-25T12:56:27;35.40;32.90
7317;DHT22;3699;51.462;6.696;2022-08-25T12:59:07;35.40;33.00
7317;DHT22;3699;51.462;6.696;2022-08-25T13:01:56;35.40;31.80
7317;DHT22;3699;51.462;6.696;2022-08-25T13:04:53;35.40;32.50
7317;DHT22;3699;51.462;6.696;2022-08-25T13:07:38;35.40;32.50
7317;DHT22;3699;51.462;6.696;2022-08-25T13:13:11;35.30;32.10
7317;DHT22;3699;51.462;6.696;2022-08-25T13:16:00;35.30;32.20
7317;DHT22;3699;51.462;6.696;2022-08-25T13:18:29;35.30;31.40
7317;DHT22;3699;51.462;6.696;2022-08-25T13:21:03;35.20;31.50
7317;DHT22;3699;51.462;6.696;2022-08-25T13:23:34;35.00;31.80
7317;DHT22;3699;51.462;6.696;2022-08-25T13:26:02;35.00;32.60
7317;DHT22;3699;51.462;6.696;2022-08-25T13:28:33;35.00;33.10
7317;DHT22;3699;51.462;6.696;2022-08-25T13:31:05;34.80;30.50
7317;DHT22;3699;51.462;6.696;2022-08-25T13:33:34;34.80;31.90
7317;DHT22;3699;51.462;6.696;2022-08-25T13:36:01;34.80;32.60
7317;DHT22;3699;51.462;6.696;2022-08-25T13:38:47;34.80;30.00
7317;DHT22;3699;51.462;6.696;2022-08-25T13:41:20;34.70;30.50
7317;DHT22;3699;51.462;6.696;2022-08-25T13:43:50;34.70;30.30
7317;DHT22;3699;51.462;6.696;2022-08-25T13:46:18;34.60;31.80
7317;DHT22;3699;51.462;6.696;2022-08-25T13:48:46;34.50;31.30
7317;DHT22;3699;51.462;6.696;2022-08-25T13:51:22;34.50;30.60
7317;DHT22;3699;51.462;6.696;2022-08-25T13:53:52;34.40;30.00
7317;DHT22;3699;51.462;6.696;2022-08-25T13:56:29;34.30;30.50
7317;DHT22;3699;51.462;6.696;2022-08-25T13:59:00;34.30;31.00
7317;DHT22;3699;51.462;6.696;2022-08-25T14:01:29;34.30;30.20
7317;DHT22;3699;51.462;6.696;2022-08-25T14:04:20;34.30;31.40
7317;DHT22;3699;51.462;6.696;2022-08-25T14:07:04;34.40;31.20
7317;DHT22;3699;51.462;6.696;2022-08-25T14:09:38;34.50;30.70
7317;DHT22;3699;51.462;6.696;2022-08-25T14:12:06;34.50;31.70
7317;DHT22;3699;51.462;6.696;2022-08-25T14:14:34;34.60;30.70
7317;DHT22;3699;51.462;6.696;2022-08-25T14:17:05;34.60;31.10
7317;DHT22;3699;51.462;6.696;2022-08-25T14:19:34;34.60;29.80
7317;DHT22;3699;51.462;6.696;2022-08-25T14:22:02;34.50;29.20
7317;DHT22;3699;51.462;6.696;2022-08-25T14:24:33;34.40;29.20
7317;DHT22;3699;51.462;6.696;2022-08-25T14:27:00;34.30;27.70
7317;DHT22;3699;51.462;6.696;2022-08-25T14:29:30;34.20;27.90
7317;DHT22;3699;51.462;6.696;2022-08-25T14:32:01;34.10;29.60
7317;DHT22;3699;51.462;6.696;2022-08-25T14:34:34;34.00;30.00
7317;DHT22;3699;51.462;6.696;2022-08-25T14:37:04;34.10;30.40
7317;DHT22;3699;51.462;6.696;2022-08-25T14:39:31;34.10;29.70
7317;DHT22;3699;51.462;6.696;2022-08-25T14:41:58;34.20;29.50
7317;DHT22;3699;51.462;6.696;2022-08-25T14:44:24;34.20;29.30
7317;DHT22;3699;51.462;6.696;2022-08-25T14:46:53;34.30;31.80
7317;DHT22;3699;51.462;6.696;2022-08-25T14:49:24;34.40;32.20
7317;DHT22;3699;51.462;6.696;2022-08-25T14:51:55;34.50;30.70
7317;DHT22;3699;51.462;6.696;2022-08-25T14:54:25;34.40;29.60
7317;DHT22;3699;51.462;6.696;2022-08-25T14:56:53;34.40;29.20
7317;DHT22;3699;51.462;6.696;2022-08-25T14:59:21;34.30;29.10
7317;DHT22;3699;51.462;6.696;2022-08-25T15:01:48;34.30;29.30
7317;DHT22;3699;51.462;6.696;2022-08-25T15:04:17;34.30;29.90
7317;DHT22;3699;51.462;6.696;2022-08-25T15:06:46;34.30;29.50
7317;DHT22;3699;51.462;6.696;2022-08-25T15:09:15;34.40;30.00
7317;DHT22;3699;51.462;6.696;2022-08-25T15:11:44;34.30;30.50
7317;DHT22;3699;51.462;6.696;2022-08-25T15:14:13;34.30;31.00
7317;DHT22;3699;51.462;6.696;2022-08-25T15:16:42;34.30;29.80
7317;DHT22;3699;51.462;6.696;2022-08-25T15:19:11;34.20;30.50
7317;DHT22;3699;51.462;6.696;2022-08-25T15:21:41;34.20;30.00
7317;DHT22;3699;51.462;6.696;2022-08-25T15:24:10;34.20;30.40
7317;DHT22;3699;51.462;6.696;2022-08-25T15:26:40;34.20;30.90
7317;DHT22;3699;51.462;6.696;2022-08-25T15:29:08;34.20;32.20
7317;DHT22;3699;51.462;6.696;2022-08-25T15:31:35;34.10;31.00
7317;DHT22;3699;51.462;6.696;2022-08-25T15:34:03;34.00;30.90
7317;DHT22;3699;51.462;6.696;2022-08-25T15:36:33;34.00;31.10
7317;DHT22;3699;51.462;6.696;2022-08-25T15:39:01;33.90;29.80
7317;DHT22;3699;51.462;6.696;2022-08-25T15:41:30;33.80;29.60
7317;DHT22;3699;51.462;6.696;2022-08-25T15:43:57;33.70;29.60
7317;DHT22;3699;51.462;6.696;2022-08-25T15:46:26;33.70;29.70
7317;DHT22;3699;51.462;6.696;2022-08-25T15:48:54;33.70;30.10
7317;DHT22;3699;51.462;6.696;2022-08-25T15:51:21;33.70;30.00
7317;DHT22;3699;51.462;6.696;2022-08-25T15:53:48;33.70;29.80
7317;DHT22;3699;51.462;6.696;2022-08-25T15:56:15;33.70;29.90
7317;DHT22;3699;51.462;6.696;2022-08-25T15:58:45;33.60;29.80
7317;DHT22;3699;51.462;6.696;2022-08-25T16:01:13;33.60;29.80
7317;DHT22;3699;51.462;6.696;2022-08-25T16:03:40;33.50;29.70
7317;DHT22;3699;51.462;6.696;2022-08-25T16:06:07;33.40;29.60
7317;DHT22;3699;51.462;6.696;2022-08-25T16:08:35;33.40;30.00
7317;DHT22;3699;51.462;6.696;2022-08-25T16:11:03;33.40;29.50
7317;DHT22;3699;51.462;6.696;2022-08-25T16:13:30;33.40;29.90
7317;DHT22;3699;51.462;6.696;2022-08-25T16:15:59;33.40;29.80
7317;DHT22;3699;51.462;6.696;2022-08-25T16:18:26;33.40;30.20
7317;DHT22;3699;51.462;6.696;2022-08-25T16:20:53;33.40;29.90
7317;DHT22;3699;51.462;6.696;2022-08-25T16:23:20;33.40;30.70
7317;DHT22;3699;51.462;6.696;2022-08-25T16:25:47;33.40;30.90
7317;DHT22;3699;51.462;6.696;2022-08-25T16:28:16;33.40;30.00
7317;DHT22;3699;51.462;6.696;2022-08-25T16:30:47;33.30;32.10
7317;DHT22;3699;51.462;6.696;2022-08-25T16:33:15;33.30;29.80
7317;DHT22;3699;51.462;6.696;2022-08-25T16:35:42;33.30;30.00
7317;DHT22;3699;51.462;6.696;2022-08-25T16:38:09;33.30;30.10
7317;DHT22;3699;51.462;6.696;2022-08-25T16:40:38;33.20;29.70
7317;DHT22;3699;51.462;6.696;2022-08-25T16:43:05;33.20;30.70